Time;durP1;ratioP1;P1;durP2;ratioP2;P2;SDS_P1;SDS_P2;PMS_P1;PMS_P2;Temp;Humidity;BMP_temperature;BMP_pressure;BME280_temperature;BME280_humidity;BME280_pressure;Samples;Min_cycle;Max_cycle;Signal;HPM_P1;HPM_P2
2022/09/03 00:02:34;;;;;;;6.07;4.60;;;21.30;85.50;;;;;;5032927;28;20065;-63
2022/09/03 00:05:26;;;;;;;9.55;4.80;;;21.20;85.70;;;;;;5030577;28;20044;-63
2022/09/03 00:07:56;;;;;;;9.93;4.63;;;21.20;85.70;;;;;;5034205;28;20043;-63
2022/09/03 00:10:28;;;;;;;9.18;5.75;;;21.20;85.70;;;;;;5035520;28;20061;-63
2022/09/03 00:12:56;;;;;;;10.30;6.07;;;21.20;85.70;;;;;;5035164;28;20480;-63
2022/09/03 00:15:22;;;;;;;7.88;5.90;;;21.20;85.60;;;;;;5005183;28;20744;-63
2022/09/03 00:18:01;;;;;;;7.28;5.30;;;21.20;85.70;;;;;;5035842;28;20120;-62
2022/09/03 00:21:07;;;;;;;7.07;5.05;;;21.20;85.70;;;;;;5033820;28;20033;-63
2022/09/03 00:23:34;;;;;;;8.60;4.30;;;21.20;85.70;;;;;;4988500;28;20543;-63
2022/09/03 00:26:16;;;;;;;12.48;4.38;;;21.20;85.70;;;;;;5032887;28;20041;-63
2022/09/03 00:28:44;;;;;;;5.45;4.00;;;21.20;85.90;;;;;;5029891;28;20147;-63
2022/09/03 00:31:29;;;;;;;9.40;4.60;;;21.10;86.00;;;;;;5003505;28;20036;-63
2022/09/03 00:33:57;;;;;;;6.25;3.80;;;21.10;86.00;;;;;;5034478;28;20041;-63
2022/09/03 00:36:41;;;;;;;8.55;4.65;;;21.10;86.10;;;;;;5019298;28;20013;-64
2022/09/03 00:39:12;;;;;;;8.05;4.35;;;21.10;86.00;;;;;;5038550;28;20032;-65
2022/09/03 00:41:47;;;;;;;10.20;4.35;;;21.10;86.70;;;;;;5040187;28;20032;-64
2022/09/03 00:44:45;;;;;;;6.97;4.53;;;21.10;86.10;;;;;;5036780;28;20056;-63
2022/09/03 00:47:17;;;;;;;5.95;4.57;;;21.10;86.20;;;;;;5039889;28;20466;-64
2022/09/03 00:49:54;;;;;;;8.60;4.75;;;21.10;86.20;;;;;;5034684;28;20388;-64
2022/09/03 00:52:39;;;;;;;5.43;4.88;;;21.10;86.30;;;;;;5034517;28;20045;-64
2022/09/03 00:55:11;;;;;;;7.35;4.70;;;21.10;86.20;;;;;;5037858;28;20042;-65
2022/09/03 00:57:47;;;;;;;7.68;5.20;;;21.10;86.20;;;;;;5034916;28;20040;-64
2022/09/03 01:00:15;;;;;;;8.77;5.18;;;21.10;86.40;;;;;;5021449;28;20012;-65
2022/09/03 01:03:06;;;;;;;8.02;4.78;;;21.10;86.60;;;;;;5021770;28;20026;-64
2022/09/03 01:05:58;;;;;;;8.45;4.97;;;21.10;86.70;;;;;;5036662;28;20033;-64
2022/09/03 01:08:43;;;;;;;8.65;5.40;;;21.00;86.50;;;;;;5038629;28;20112;-64
2022/09/03 01:11:30;;;;;;;6.28;5.50;;;21.10;86.30;;;;;;5038134;28;20966;-64
2022/09/03 01:14:09;;;;;;;5.95;4.80;;;21.10;86.30;;;;;;5034479;28;20037;-64
2022/09/03 01:16:38;;;;;;;7.80;4.97;;;21.10;86.80;;;;;;5035412;28;20045;-65
2022/09/03 01:19:41;;;;;;;5.95;4.57;;;21.10;86.50;;;;;;5033953;28;20098;-64
2022/09/03 01:22:31;;;;;;;6.50;5.07;;;21.10;86.70;;;;;;5034592;28;20386;-64
2022/09/03 01:25:01;;;;;;;6.45;5.38;;;21.10;87.00;;;;;;5036066;28;20029;-63
2022/09/03 01:27:48;;;;;;;5.47;4.65;;;21.00;87.20;;;;;;5035763;28;20036;-65
2022/09/03 01:30:17;;;;;;;5.25;4.53;;;21.00;87.30;;;;;;5037060;28;20481;-65
2022/09/03 01:33:01;;;;;;;6.88;4.40;;;21.00;87.40;;;;;;5024274;28;20017;-64
2022/09/03 01:35:46;;;;;;;6.72;4.10;;;21.00;87.50;;;;;;5022609;28;20033;-64
2022/09/03 01:38:34;;;;;;;5.40;4.25;;;21.00;87.60;;;;;;5036673;28;20022;-64
2022/09/03 01:44:12;;;;;;;;;;;20.90;87.70;;;;;;5035078;28;20563;-64
2022/09/03 01:46:41;;;;;;;7.00;4.82;;;20.90;87.80;;;;;;5033537;28;19917;-64
2022/09/03 01:49:33;;;;;;;6.65;4.50;;;20.90;87.70;;;;;;5033680;28;20037;-64
2022/09/03 01:52:16;;;;;;;5.63;4.90;;;20.90;87.70;;;;;;5036384;28;20182;-64
2022/09/03 01:55:08;;;;;;;10.20;6.28;;;20.90;87.70;;;;;;5020015;28;20143;-64
2022/09/03 01:57:55;;;;;;;8.70;5.70;;;20.90;87.80;;;;;;5018645;28;20136;-64
2022/09/03 02:00:21;;;;;;;7.65;5.72;;;20.90;87.90;;;;;;5020420;28;20059;-66
2022/09/03 02:02:49;;;;;;;6.50;5.18;;;20.90;88.10;;;;;;5035517;28;20151;-64
2022/09/03 02:05:24;;;;;;;5.85;5.28;;;20.90;88.10;;;;;;5018636;28;20733;-64
2022/09/03 02:08:02;;;;;;;8.02;4.88;;;20.90;88.20;;;;;;5032427;28;20266;-65
2022/09/03 02:10:31;;;;;;;6.47;4.97;;;20.90;88.10;;;;;;5036182;28;20276;-64
2022/09/03 02:13:03;;;;;;;5.75;5.22;;;20.90;88.10;;;;;;5018417;28;20037;-64
2022/09/03 02:15:31;;;;;;;9.07;4.90;;;20.90;88.30;;;;;;5033882;28;20029;-64
2022/09/03 02:17:58;;;;;;;5.90;5.07;;;21.00;88.40;;;;;;5034510;28;20063;-64
2022/09/03 02:20:25;;;;;;;5.85;4.88;;;20.90;88.40;;;;;;5016196;28;20090;-64
2022/09/03 02:22:51;;;;;;;8.20;4.18;;;20.90;88.50;;;;;;5033270;28;20040;-64
2022/09/03 02:25:16;;;;;;;10.40;4.97;;;20.90;88.50;;;;;;5034718;28;20594;-64
2022/09/03 02:27:43;;;;;;;4.43;4.03;;;21.00;88.50;;;;;;5034698;28;20068;-64
2022/09/03 02:30:09;;;;;;;4.68;4.18;;;20.90;88.60;;;;;;5033240;28;20021;-64
2022/09/03 02:32:34;;;;;;;4.50;4.10;;;20.90;88.60;;;;;;5032522;28;20108;-64
2022/09/03 02:35:00;;;;;;;8.43;4.32;;;20.90;88.70;;;;;;5030917;28;20125;-64
2022/09/03 02:37:25;;;;;;;4.38;3.83;;;20.90;88.80;;;;;;5034677;28;20479;-64
2022/09/03 02:39:51;;;;;;;5.10;4.43;;;20.90;88.80;;;;;;5021527;28;20492;-64
2022/09/03 02:42:17;;;;;;;5.70;4.82;;;20.90;88.80;;;;;;5021824;28;20499;-64
2022/09/03 02:44:47;;;;;;;7.32;5.63;;;20.80;88.80;;;;;;5034794;28;20049;-65
2022/09/03 02:47:14;;;;;;;8.05;5.72;;;20.90;89.00;;;;;;5012913;28;20057;-64
2022/09/03 02:49:39;;;;;;;7.95;5.45;;;20.80;88.90;;;;;;5029458;28;20061;-64
2022/09/03 02:52:08;;;;;;;6.82;5.68;;;20.80;89.00;;;;;;5013610;28;20119;-64
2022/09/03 02:54:40;;;;;;;5.70;5.10;;;20.80;89.00;;;;;;5031599;28;20052;-65
2022/09/03 02:57:07;;;;;;;5.60;5.10;;;20.80;88.90;;;;;;5035755;28;20032;-64
2022/09/03 02:59:32;;;;;;;7.82;5.47;;;20.80;88.90;;;;;;5033663;28;20025;-64
2022/09/03 03:01:58;;;;;;;6.43;5.82;;;20.80;88.80;;;;;;5034242;28;20017;-64
2022/09/03 03:04:23;;;;;;;7.30;5.90;;;20.90;88.90;;;;;;5020278;28;20281;-64
2022/09/03 03:06:51;;;;;;;6.10;5.50;;;20.80;88.80;;;;;;5032875;28;20060;-64
2022/09/03 03:09:17;;;;;;;7.28;4.82;;;20.80;88.80;;;;;;5036267;28;20460;-64
2022/09/03 03:11:43;;;;;;;5.47;4.75;;;20.80;88.80;;;;;;5019358;28;20033;-64
2022/09/03 03:14:08;;;;;;;5.13;4.68;;;20.80;88.80;;;;;;5036167;28;20017;-64
2022/09/03 03:16:34;;;;;;;5.53;4.50;;;20.80;88.70;;;;;;5035251;28;20139;-64
2022/09/03 03:18:59;;;;;;;5.05;4.53;;;20.80;88.80;;;;;;5034957;28;20067;-64
2022/09/03 03:21:25;;;;;;;5.18;4.68;;;20.70;88.70;;;;;;5034023;28;20037;-64
2022/09/03 03:23:50;;;;;;;6.63;4.50;;;20.70;88.60;;;;;;5035946;28;20025;-64
2022/09/03 03:26:17;;;;;;;4.80;4.32;;;20.70;88.70;;;;;;5032341;28;20501;-64
2022/09/03 03:28:43;;;;;;;5.35;4.85;;;20.70;88.60;;;;;;5016119;28;20531;-64
2022/09/03 03:31:17;;;;;;;5.25;4.78;;;20.70;88.80;;;;;;5033672;28;20028;-64
2022/09/03 03:33:42;;;;;;;4.85;4.43;;;20.70;88.70;;;;;;5017487;28;20036;-64
2022/09/03 03:36:13;;;;;;;4.70;4.30;;;20.70;88.70;;;;;;5033023;28;20021;-64
2022/09/03 03:38:39;;;;;;;4.60;4.15;;;20.70;88.70;;;;;;5019199;28;20552;-64
2022/09/03 03:41:18;;;;;;;5.18;4.40;;;20.70;88.90;;;;;;5035111;28;20161;-64
2022/09/03 03:43:43;;;;;;;5.50;4.35;;;20.70;89.10;;;;;;5033605;28;20152;-64
2022/09/03 03:46:09;;;;;;;13.80;5.13;;;20.70;89.10;;;;;;5033088;28;20139;-64
2022/09/03 03:48:35;;;;;;;6.18;4.50;;;20.70;89.20;;;;;;5033568;28;20031;-64
2022/09/03 03:51:03;;;;;;;7.85;4.63;;;20.70;89.10;;;;;;5034192;28;20156;-64
2022/09/03 03:53:29;;;;;;;8.10;4.60;;;20.70;89.10;;;;;;5016271;28;20036;-64
2022/09/03 03:55:56;;;;;;;8.93;4.78;;;20.70;89.00;;;;;;5017207;28;20553;-64
2022/09/03 03:58:22;;;;;;;10.55;4.18;;;20.70;88.90;;;;;;5033412;28;20028;-64
2022/09/03 04:00:48;;;;;;;6.82;4.20;;;20.70;88.80;;;;;;5034435;28;20037;-64
2022/09/03 04:03:14;;;;;;;4.28;3.88;;;20.70;88.90;;;;;;5032963;28;20409;-64
2022/09/03 04:05:39;;;;;;;4.15;3.33;;;20.70;88.80;;;;;;5033490;28;20029;-64
2022/09/03 04:08:05;;;;;;;5.03;4.05;;;20.70;88.80;;;;;;5031676;28;20025;-64
2022/09/03 04:10:31;;;;;;;5.63;4.47;;;20.70;88.80;;;;;;5033698;28;20065;-64
2022/09/03 04:12:56;;;;;;;8.80;4.72;;;20.70;88.90;;;;;;5033673;28;20124;-64
2022/09/03 04:15:22;;;;;;;4.75;4.25;;;20.60;88.70;;;;;;5017737;28;20111;-64
2022/09/03 04:17:47;;;;;;;6.55;4.25;;;20.60;88.70;;;;;;5031558;28;20022;-64
2022/09/03 04:20:12;;;;;;;5.10;4.63;;;20.60;88.60;;;;;;5029099;28;20543;-65
2022/09/03 04:22:38;;;;;;;10.20;4.78;;;20.60;88.60;;;;;;5034535;28;20029;-66
2022/09/03 04:25:04;;;;;;;4.82;4.28;;;20.70;88.60;;;;;;5018515;28;20075;-67
2022/09/03 04:27:30;;;;;;;5.20;4.03;;;20.60;88.50;;;;;;5036362;28;20037;-64
2022/09/03 04:29:55;;;;;;;5.93;3.75;;;20.60;88.60;;;;;;5034427;28;20064;-64
2022/09/03 04:35:05;;;;;;;3.95;3.55;;;20.60;88.60;;;;;;5033233;28;20040;-63
2022/09/03 04:37:31;;;;;;;4.95;3.88;;;20.60;88.60;;;;;;5035081;28;20025;-64
2022/09/03 04:39:57;;;;;;;4.28;3.88;;;20.60;88.60;;;;;;5032105;28;20039;-64
2022/09/03 04:42:23;;;;;;;5.70;3.72;;;20.60;88.50;;;;;;5033201;28;21113;-64
2022/09/03 04:44:48;;;;;;;5.72;3.83;;;20.50;88.40;;;;;;5031557;28;20057;-64
2022/09/03 04:47:15;;;;;;;4.45;3.95;;;20.60;88.40;;;;;;5017822;28;20088;-63
2022/09/03 04:49:40;;;;;;;7.65;3.72;;;20.50;88.40;;;;;;5030786;28;20017;-65
2022/09/03 04:52:06;;;;;;;6.38;4.43;;;20.60;88.40;;;;;;5034815;28;20025;-64
2022/09/03 04:54:31;;;;;;;7.10;3.92;;;20.50;88.20;;;;;;5030902;28;20022;-65
2022/09/03 04:56:57;;;;;;;4.15;3.50;;;20.60;88.30;;;;;;5036531;28;20039;-64
2022/09/03 04:59:22;;;;;;;9.43;3.75;;;20.60;88.20;;;;;;5035049;28;20036;-64
2022/09/03 05:01:47;;;;;;;13.05;4.35;;;20.60;88.20;;;;;;5035094;28;20029;-64
2022/09/03 05:04:13;;;;;;;6.32;3.10;;;20.60;88.30;;;;;;5035431;28;20531;-64
2022/09/03 05:06:39;;;;;;;6.65;3.65;;;20.50;88.20;;;;;;5037946;28;20040;-65
2022/09/03 05:09:04;;;;;;;5.13;3.85;;;20.60;88.20;;;;;;5035841;28;20037;-63
2022/09/03 05:11:30;;;;;;;4.35;3.95;;;20.60;88.10;;;;;;5035570;28;20087;-64
2022/09/03 05:13:56;;;;;;;5.65;4.30;;;20.50;88.00;;;;;;5039887;28;20168;-64
2022/09/03 05:16:22;;;;;;;7.55;3.70;;;20.60;88.10;;;;;;5036609;28;20029;-64
2022/09/03 05:18:50;;;;;;;3.90;3.35;;;20.50;88.10;;;;;;5016937;28;20044;-65
2022/09/03 05:21:17;;;;;;;8.25;3.28;;;20.50;88.20;;;;;;5033373;28;20033;-65
2022/09/03 05:23:44;;;;;;;3.38;3.00;;;20.50;88.20;;;;;;5036971;28;20044;-64
2022/09/03 05:26:12;;;;;;;3.75;3.22;;;20.50;88.40;;;;;;5034478;28;20120;-64
2022/09/03 05:28:39;;;;;;;5.70;3.42;;;20.50;88.50;;;;;;5036835;28;20075;-64
2022/09/03 05:31:09;;;;;;;5.25;3.33;;;20.50;88.50;;;;;;5014934;28;20409;-65
2022/09/03 05:33:36;;;;;;;4.63;3.17;;;20.40;88.40;;;;;;5020649;28;20031;-64
2022/09/03 05:36:03;;;;;;;3.03;2.72;;;20.40;88.40;;;;;;5034079;28;20091;-65
2022/09/03 05:38:29;;;;;;;4.65;3.05;;;20.40;88.50;;;;;;5019927;28;20035;-64
2022/09/03 05:40:58;;;;;;;4.35;3.33;;;20.40;88.60;;;;;;5019204;28;20424;-64
2022/09/03 05:43:24;;;;;;;5.35;3.22;;;20.40;88.60;;;;;;5034769;28;20041;-64
2022/09/03 05:45:49;;;;;;;17.65;4.20;;;20.40;88.60;;;;;;5033942;28;20515;-64
2022/09/03 05:48:15;;;;;;;25.00;4.20;;;20.40;88.70;;;;;;5035179;28;20138;-64
2022/09/03 05:50:40;;;;;;;12.88;3.83;;;20.40;88.80;;;;;;5002194;28;20082;-63
2022/09/03 05:53:06;;;;;;;11.77;3.80;;;20.30;88.70;;;;;;5033978;28;20045;-64
2022/09/03 05:55:32;;;;;;;13.48;4.45;;;20.30;88.80;;;;;;5037359;28;20021;-63
2022/09/03 05:57:58;;;;;;;13.23;3.60;;;20.30;88.70;;;;;;5034781;28;20430;-64
2022/09/03 06:00:24;;;;;;;13.68;4.30;;;20.40;88.70;;;;;;5034032;28;20036;-64
2022/09/03 06:02:51;;;;;;;15.05;3.65;;;20.40;88.70;;;;;;5032303;28;20293;-65
2022/09/03 06:05:17;;;;;;;13.23;3.90;;;20.40;88.70;;;;;;5017830;28;20495;-65
2022/09/03 06:07:43;;;;;;;13.35;4.13;;;20.40;88.70;;;;;;5035467;28;20036;-64
2022/09/03 06:10:10;;;;;;;9.77;3.67;;;20.30;88.70;;;;;;5033240;28;20124;-64
2022/09/03 06:12:36;;;;;;;17.42;3.85;;;20.40;88.90;;;;;;5034784;28;20032;-64
2022/09/03 06:15:01;;;;;;;16.52;4.05;;;20.30;88.90;;;;;;5033922;28;20425;-64
2022/09/03 06:17:27;;;;;;;16.33;4.05;;;20.40;88.90;;;;;;5032311;28;20448;-64
2022/09/03 06:19:52;;;;;;;9.93;3.55;;;20.40;88.90;;;;;;5034391;28;20566;-64
2022/09/03 06:22:18;;;;;;;13.15;3.67;;;20.30;89.00;;;;;;5037588;28;20579;-64
2022/09/03 06:24:43;;;;;;;11.07;3.30;;;20.30;89.20;;;;;;5033046;28;20101;-64
2022/09/03 06:27:09;;;;;;;16.92;3.97;;;20.30;89.30;;;;;;5035364;28;20036;-64
2022/09/03 06:29:35;;;;;;;13.10;3.72;;;20.30;89.20;;;;;;5034298;28;20075;-64
2022/09/03 06:32:03;;;;;;;9.38;3.33;;;20.30;89.10;;;;;;5033748;28;20025;-65
2022/09/03 06:34:28;;;;;;;10.23;3.63;;;20.40;89.20;;;;;;5004860;28;20017;-64
2022/09/03 06:36:54;;;;;;;14.30;3.45;;;20.30;89.00;;;;;;5033223;28;20052;-64
2022/09/03 06:39:19;;;;;;;9.13;3.40;;;20.40;89.10;;;;;;5033010;28;20547;-64
2022/09/03 06:41:50;;;;;;;7.15;2.70;;;20.30;89.50;;;;;;5032413;28;20680;-64
2022/09/03 06:44:16;;;;;;;9.27;3.20;;;20.30;89.80;;;;;;5032754;28;20052;-64
2022/09/03 06:46:41;;;;;;;8.60;2.90;;;20.30;89.90;;;;;;5034621;28;20059;-64
2022/09/03 06:49:07;;;;;;;9.52;3.20;;;20.30;89.90;;;;;;5032696;28;20503;-64
2022/09/03 06:51:33;;;;;;;6.25;2.80;;;20.30;90.00;;;;;;5032799;28;20060;-64
2022/09/03 06:54:09;;;;;;;8.55;3.00;;;20.30;90.10;;;;;;5016734;28;20026;-65
2022/09/03 06:56:35;;;;;;;9.27;2.70;;;20.30;90.10;;;;;;5034655;28;20406;-64
2022/09/03 06:59:05;;;;;;;8.27;3.47;;;20.30;90.10;;;;;;5034807;28;20039;-65
2022/09/03 07:01:31;;;;;;;7.13;2.35;;;20.30;90.10;;;;;;5034312;28;20029;-64
2022/09/03 07:03:59;;;;;;;9.50;3.03;;;20.40;90.20;;;;;;5033240;28;20132;-65
2022/09/03 07:06:26;;;;;;;7.95;2.95;;;20.40;90.20;;;;;;5031666;28;20465;-64
2022/09/03 07:08:52;;;;;;;5.68;2.55;;;20.30;90.20;;;;;;5034976;28;20357;-65
2022/09/03 07:11:21;;;;;;;8.40;2.72;;;20.30;90.30;;;;;;5032490;28;20066;-64
2022/09/03 07:13:47;;;;;;;9.52;3.33;;;20.30;90.30;;;;;;5016145;28;20033;-64
2022/09/03 07:16:17;;;;;;;7.20;2.60;;;20.30;90.30;;;;;;5031102;28;20112;-64
2022/09/03 07:18:43;;;;;;;4.57;2.30;;;20.30;90.30;;;;;;5029116;28;20040;-64
2022/09/03 07:21:10;;;;;;;7.93;2.80;;;20.30;90.40;;;;;;5012808;28;20034;-64
2022/09/03 07:23:36;;;;;;;4.53;2.50;;;20.40;90.40;;;;;;5031784;28;20025;-64
2022/09/03 07:26:07;;;;;;;7.05;2.35;;;20.30;90.40;;;;;;5032479;28;20044;-64
2022/09/03 07:28:34;;;;;;;3.17;2.33;;;20.30;90.50;;;;;;5028345;28;20033;-64
2022/09/03 07:31:27;;;;;;;2.85;1.95;;;20.30;90.40;;;;;;5011422;28;20067;-63
2022/09/03 07:33:54;;;;;;;5.93;2.35;;;20.30;90.50;;;;;;5017652;28;20024;-64
2022/09/03 07:36:20;;;;;;;2.92;2.38;;;20.40;90.50;;;;;;5030625;28;20025;-63
2022/09/03 07:38:45;;;;;;;7.53;2.55;;;20.40;90.50;;;;;;5030663;28;20033;-64
2022/09/03 07:41:12;;;;;;;2.88;2.25;;;20.40;90.50;;;;;;5032870;28;20069;-64
2022/09/03 07:43:39;;;;;;;5.03;2.40;;;20.40;90.40;;;;;;5033044;28;20076;-64
2022/09/03 07:46:05;;;;;;;9.00;2.70;;;20.40;90.30;;;;;;5032831;28;20036;-64
2022/09/03 07:48:31;;;;;;;4.40;2.33;;;20.50;90.30;;;;;;5031899;28;20036;-64
2022/09/03 07:50:59;;;;;;;4.45;2.25;;;20.40;90.40;;;;;;5016733;28;20049;-64
2022/09/03 07:53:25;;;;;;;6.60;2.28;;;20.40;90.50;;;;;;5028209;28;20026;-64
2022/09/03 07:55:51;;;;;;;3.65;2.30;;;20.50;90.70;;;;;;5025215;28;20041;-64
2022/09/03 07:58:16;;;;;;;4.00;2.10;;;20.60;90.70;;;;;;5027270;28;20108;-64
2022/09/03 08:00:42;;;;;;;4.55;2.03;;;20.50;90.70;;;;;;5027062;28;20561;-64
2022/09/03 08:03:07;;;;;;;3.10;1.85;;;20.50;90.70;;;;;;5031047;28;20580;-64
2022/09/03 08:05:35;;;;;;;6.88;2.33;;;20.50;90.80;;;;;;5028567;28;20544;-64
2022/09/03 08:08:03;;;;;;;8.13;2.70;;;20.40;90.80;;;;;;5028064;28;20060;-64
2022/09/03 08:10:30;;;;;;;7.50;2.47;;;20.40;90.90;;;;;;5027800;28;20025;-64
2022/09/03 08:12:56;;;;;;;10.07;2.72;;;20.50;91.00;;;;;;5030026;28;20103;-64
2022/09/03 08:15:22;;;;;;;9.80;2.53;;;20.50;91.10;;;;;;5024700;28;20509;-64
2022/09/03 08:17:48;;;;;;;13.57;2.85;;;20.50;91.10;;;;;;5027455;28;20032;-64
2022/09/03 08:20:13;;;;;;;6.63;2.15;;;20.50;91.10;;;;;;5026678;28;20037;-64
2022/09/03 08:22:40;;;;;;;21.55;3.17;;;20.50;91.10;;;;;;5026936;28;20045;-64
2022/09/03 08:25:06;;;;;;;15.77;3.22;;;20.50;91.20;;;;;;5009915;28;20029;-64
2022/09/03 08:27:31;;;;;;;9.70;2.65;;;20.50;91.30;;;;;;5026586;28;20031;-64
2022/09/03 08:29:57;;;;;;;30.92;4.43;;;20.50;91.50;;;;;;5032218;28;20129;-64
2022/09/03 08:32:22;;;;;;;16.90;3.75;;;20.50;91.40;;;;;;5016780;28;20708;-64
2022/09/03 08:34:49;;;;;;;33.05;4.93;;;20.60;91.60;;;;;;5027346;28;20484;-64
2022/09/03 08:37:15;;;;;;;48.20;6.75;;;20.60;91.60;;;;;;5030286;28;20029;-64
2022/09/03 08:39:40;;;;;;;57.22;7.90;;;20.60;91.80;;;;;;5029327;28;20067;-63
2022/09/03 08:42:12;;;;;;;56.67;8.23;;;20.60;91.90;;;;;;5023650;28;20041;-64
2022/09/03 08:44:58;;;;;;;37.47;6.95;;;20.70;92.50;;;;;;5032162;28;20587;-64
2022/09/03 08:47:44;;;;;;;59.72;7.82;;;20.70;92.30;;;;;;5011368;28;20169;-63
2022/09/03 08:50:16;;;;;;;78.25;11.02;;;20.70;92.00;;;;;;5025196;28;20046;-64
2022/09/03 08:52:48;;;;;;;120.93;10.73;;;20.80;92.40;;;;;;5033269;28;20029;-64
2022/09/03 08:55:32;;;;;;;105.80;11.50;;;20.80;92.00;;;;;;5030627;28;20095;-64
2022/09/03 08:58:14;;;;;;;117.45;14.00;;;20.90;92.30;;;;;;5027874;28;20029;-64
2022/09/03 09:01:00;;;;;;;135.15;13.25;;;20.90;92.50;;;;;;5026714;28;20052;-64
2022/09/03 09:03:33;;;;;;;104.72;13.80;;;21.00;92.60;;;;;;5014416;28;20024;-64
2022/09/03 09:06:12;;;;;;;111.68;13.48;;;21.10;92.40;;;;;;5032563;28;20516;-64
2022/09/03 09:09:04;;;;;;;128.23;13.80;;;21.10;92.40;;;;;;5028770;28;20075;-64
2022/09/03 09:11:58;;;;;;;142.52;14.60;;;21.20;92.40;;;;;;5031600;28;20044;-63
2022/09/03 09:14:27;;;;;;;136.10;15.00;;;21.20;92.40;;;;;;5026368;28;20033;-63
2022/09/03 09:17:00;;;;;;;177.05;18.42;;;21.20;92.40;;;;;;5011484;28;20033;-64
2022/09/03 09:19:36;;;;;;;166.88;17.88;;;21.30;92.40;;;;;;5011442;28;20038;-63
2022/09/03 09:22:06;;;;;;;173.13;18.58;;;21.30;92.50;;;;;;5021678;28;20512;-64
2022/09/03 09:24:40;;;;;;;179.93;17.83;;;21.30;92.60;;;;;;5016515;28;20527;-64
2022/09/03 09:27:06;;;;;;;173.40;17.23;;;21.30;92.60;;;;;;5022536;28;20539;-64
2022/09/03 09:29:33;;;;;;;156.32;14.68;;;21.40;92.60;;;;;;5025734;28;20049;-64
2022/09/03 09:31:59;;;;;;;121.75;14.60;;;21.40;92.50;;;;;;5024518;28;20478;-64
2022/09/03 09:34:24;;;;;;;133.57;14.88;;;21.50;92.50;;;;;;5031144;28;20040;-63
2022/09/03 09:36:52;;;;;;;112.40;14.23;;;21.60;92.30;;;;;;5029750;28;20021;-64
2022/09/03 09:39:18;;;;;;;125.90;14.57;;;21.50;92.10;;;;;;5017813;28;20116;-63
2022/09/03 09:41:55;;;;;;;128.70;14.60;;;21.60;92.00;;;;;;5027195;28;20029;-63
2022/09/03 09:44:21;;;;;;;136.02;14.52;;;21.60;92.00;;;;;;5031966;28;20126;-64
2022/09/03 09:46:47;;;;;;;150.45;17.35;;;21.60;92.10;;;;;;5029802;28;20197;-63
2022/09/03 09:49:34;;;;;;;132.75;14.68;;;21.60;92.00;;;;;;5030580;28;20059;-63
2022/09/03 09:52:01;;;;;;;144.20;14.43;;;21.60;92.00;;;;;;5011227;28;20052;-63
2022/09/03 09:54:26;;;;;;;137.13;15.52;;;21.60;91.90;;;;;;5021625;28;20477;-63
2022/09/03 09:57:03;;;;;;;123.10;14.52;;;21.50;92.00;;;;;;5027377;28;20029;-64
2022/09/03 09:59:29;;;;;;;120.80;14.88;;;21.60;91.90;;;;;;5012202;28;20108;-64
2022/09/03 10:02:12;;;;;;;123.85;14.65;;;21.60;91.80;;;;;;5012514;28;20025;-63
2022/09/03 10:04:38;;;;;;;120.15;16.77;;;21.60;91.70;;;;;;5022704;28;20523;-63
2022/09/03 10:07:19;;;;;;;119.75;16.58;;;21.60;92.00;;;;;;5022252;28;20033;-64
2022/09/03 10:09:45;;;;;;;118.90;15.57;;;21.60;91.60;;;;;;5014696;28;20025;-63
2022/09/03 10:12:31;;;;;;;129.63;15.70;;;21.60;91.50;;;;;;5027878;28;20056;-66
2022/09/03 10:15:11;;;;;;;;;;;21.70;91.40;;;;;;5029684;28;20041;-64
2022/09/03 10:18:02;;;;;;;140.52;16.90;;;21.60;91.40;;;;;;5022870;28;19924;-64
2022/09/03 10:20:39;;;;;;;159.02;20.23;;;21.60;91.50;;;;;;5016638;28;20180;-64
2022/09/03 10:23:21;;;;;;;136.02;15.90;;;21.80;91.60;;;;;;5016317;28;20092;-64
2022/09/03 10:25:55;;;;;;;141.75;17.15;;;21.60;91.60;;;;;;5023150;28;20055;-64
2022/09/03 10:28:23;;;;;;;107.27;14.83;;;21.60;91.60;;;;;;5024445;28;20078;-64
2022/09/03 10:31:07;;;;;;;159.70;16.67;;;21.60;91.50;;;;;;5014140;28;20502;-64
2022/09/03 10:33:38;;;;;;;178.65;20.48;;;21.60;91.50;;;;;;5023396;28;20029;-64
2022/09/03 10:36:11;;;;;;;187.95;20.50;;;21.70;91.50;;;;;;5016837;28;20056;-64
2022/09/03 10:38:36;;;;;;;158.80;17.33;;;21.70;91.50;;;;;;5000968;28;20052;-63
2022/09/03 10:41:30;;;;;;;138.55;16.00;;;21.70;91.50;;;;;;5007122;28;20457;-64
2022/09/03 10:44:34;;;;;;;161.32;15.32;;;21.70;91.30;;;;;;5025928;28;20076;-63
2022/09/03 10:47:09;;;;;;;138.30;17.08;;;21.80;91.20;;;;;;5029986;28;20056;-64
2022/09/03 10:50:16;;;;;;;129.50;15.60;;;21.70;91.20;;;;;;5022366;28;20164;-64
2022/09/03 10:53:00;;;;;;;;;;;21.70;91.10;;;;;;5005811;28;20102;-63
2022/09/03 10:56:00;;;;;;;130.27;15.55;;;21.70;91.10;;;;;;5025479;28;19909;-63
2022/09/03 10:59:03;;;;;;;120.18;14.02;;;21.70;91.00;;;;;;5028577;28;20449;-64
2022/09/03 11:02:00;;;;;;;90.57;13.77;;;21.60;91.10;;;;;;5018166;28;20049;-64
2022/09/03 11:04:38;;;;;;;;;;;21.60;91.20;;;;;;5028570;28;20573;-64
2022/09/03 11:07:06;;;;;;;128.25;15.88;;;21.70;91.30;;;;;;5028158;28;20345;-64
2022/09/03 11:09:36;;;;;;;115.28;14.50;;;21.70;91.30;;;;;;5008153;28;20380;-64
2022/09/03 11:12:33;;;;;;;139.48;13.73;;;21.70;91.30;;;;;;5022209;28;20048;-64
2022/09/03 11:15:09;;;;;;;113.65;15.55;;;21.70;91.20;;;;;;5023881;28;20057;-64
2022/09/03 11:18:01;;;;;;;;;;;21.70;91.10;;;;;;5030089;28;20025;-64
2022/09/03 11:20:26;;;;;;;148.40;15.57;;;21.70;90.90;;;;;;5011798;28;19918;-64
2022/09/03 11:22:54;;;;;;;130.88;15.45;;;21.80;90.90;;;;;;5028234;28;20037;-64
2022/09/03 11:25:24;;;;;;;102.30;13.35;;;21.80;90.90;;;;;;5011866;28;20464;-65
2022/09/03 11:27:56;;;;;;;179.93;17.77;;;21.80;91.10;;;;;;5011172;28;20571;-64
2022/09/03 11:31:00;;;;;;;157.57;18.83;;;21.80;91.00;;;;;;5018680;28;20029;-63
2022/09/03 11:33:26;;;;;;;139.38;17.33;;;21.80;90.90;;;;;;5020686;28;20094;-63
2022/09/03 11:36:01;;;;;;;156.45;18.70;;;21.80;90.90;;;;;;5007743;28;21855;-63
2022/09/03 11:38:30;;;;;;;140.95;17.15;;;21.90;91.00;;;;;;5009095;28;20039;-63
2022/09/03 11:40:59;;;;;;;140.35;16.48;;;21.90;91.00;;;;;;5020046;28;20044;-63
2022/09/03 11:43:29;;;;;;;211.45;22.75;;;22.00;91.10;;;;;;5010827;28;20361;-64
2022/09/03 11:46:05;;;;;;;171.52;18.80;;;22.00;91.00;;;;;;5011447;28;21566;-63
2022/09/03 11:48:46;;;;;;;181.82;18.63;;;22.10;90.90;;;;;;5020785;28;20032;-64
2022/09/03 11:51:20;;;;;;;179.52;19.15;;;22.10;90.80;;;;;;5022219;28;20207;-63
2022/09/03 11:53:54;;;;;;;195.40;18.93;;;22.20;90.90;;;;;;5019921;28;20025;-63
2022/09/03 11:56:20;;;;;;;171.25;20.25;;;22.20;90.90;;;;;;5005342;28;20033;-64
2022/09/03 11:58:45;;;;;;;158.13;18.70;;;22.20;90.90;;;;;;5018483;28;20511;-64
2022/09/03 12:01:12;;;;;;;172.93;18.85;;;22.20;90.90;;;;;;5009236;28;20029;-64
2022/09/03 12:03:52;;;;;;;146.00;17.35;;;22.20;90.90;;;;;;5025886;28;20501;-64
2022/09/03 12:06:33;;;;;;;159.50;18.75;;;22.30;90.90;;;;;;5018006;28;20067;-63
2022/09/03 12:09:27;;;;;;;179.75;19.48;;;22.40;90.80;;;;;;5006144;28;20072;-64
2022/09/03 12:12:10;;;;;;;177.23;20.23;;;22.40;90.70;;;;;;5021315;28;20064;-63
2022/09/03 12:15:09;;;;;;;181.85;19.83;;;22.50;90.50;;;;;;5023837;28;20017;-64
2022/09/03 12:17:48;;;;;;;161.48;18.40;;;22.50;90.40;;;;;;5024563;28;20029;-64
2022/09/03 12:20:14;;;;;;;158.27;17.75;;;22.60;90.30;;;;;;5011659;28;20032;-65
2022/09/03 12:22:40;;;;;;;170.50;17.10;;;22.60;90.30;;;;;;5028841;28;20018;-64
2022/09/03 12:25:15;;;;;;;154.20;18.00;;;22.70;90.20;;;;;;5021550;28;20381;-64
2022/09/03 12:27:44;;;;;;;150.30;16.73;;;22.80;90.10;;;;;;5005580;28;20216;-64
2022/09/03 12:30:15;;;;;;;159.23;16.92;;;22.80;90.00;;;;;;5021844;28;20180;-64
2022/09/03 12:32:40;;;;;;;118.20;16.38;;;22.90;89.70;;;;;;5017003;28;20310;-64
2022/09/03 12:35:20;;;;;;;165.48;16.45;;;23.00;89.40;;;;;;5020109;28;20582;-65
2022/09/03 12:37:45;;;;;;;152.23;15.75;;;23.10;89.30;;;;;;5019960;28;20045;-64
2022/09/03 12:40:20;;;;;;;139.05;14.98;;;23.10;89.00;;;;;;5021329;28;20025;-64
2022/09/03 12:42:45;;;;;;;171.48;19.40;;;23.10;88.90;;;;;;5013199;28;20041;-64
2022/09/03 12:45:14;;;;;;;150.00;15.90;;;23.10;88.70;;;;;;4995732;28;20294;-65
2022/09/03 12:47:40;;;;;;;167.93;18.30;;;23.10;88.60;;;;;;5019712;28;20508;-65
2022/09/03 12:50:08;;;;;;;148.32;16.73;;;23.20;88.70;;;;;;5014274;28;20232;-65
2022/09/03 12:52:36;;;;;;;119.75;14.85;;;23.20;88.30;;;;;;5019201;28;20600;-65
2022/09/03 12:55:15;;;;;;;133.55;15.35;;;23.20;88.30;;;;;;5007851;28;20124;-66
2022/09/03 12:57:46;;;;;;;157.98;16.83;;;23.20;88.10;;;;;;5016771;28;20224;-63
2022/09/03 13:00:17;;;;;;;138.90;16.75;;;23.20;88.10;;;;;;5012861;28;20244;-64
2022/09/03 13:02:55;;;;;;;161.25;17.85;;;23.20;88.40;;;;;;5018969;28;20060;-64
2022/09/03 13:05:52;;;;;;;158.98;16.52;;;23.30;88.20;;;;;;5006888;28;20037;-65
2022/09/03 13:08:22;;;;;;;132.35;16.20;;;23.30;87.90;;;;;;5010068;28;20052;-64